Share

Washburn, ME (04786)

Micmac Environmental (KMEPRESQ4) Elev 528 ft | 46.70 °N, 68.03 °W | Change Station

Current weather conditions updated 1 second ago

Clear
Clear
38.6 °F
Feels Like 39 °F
N
0.0
Wind Variable Wind from SE
Gusts 0.0 mph
Sunrise 5:41 AM
Sunset 7:23 PM
Moon Waning Gibbous

Today is forecast to be Cooler than yesterday.

Pressure 30.80 in
Visibility 10.0 miles
Clouds Clear
Windchill 39 °F
Dew Point 11 °F
Humidity 32%
Rainfall 0.00 in
Snow Depth Not available.
UV 2.0 out of 16
Pollen 7.70 out of 12
Ozone Good
PM2.5 Good
Flu Activity Regional
METAR KPQI 171735Z AUTO 10005KT 10SM CLR 02/M13 A3080 RMK AO1

More Conditions Fewer Conditions

Pressure 30.80 in
Visibility 10.0 miles
Clouds Clear
Windchill 39 °F
Dew Point 11 °F
Humidity 32%
Rainfall 0.00 in
Snow Depth Not available.
UV 2.0 out of 16
Pollen 7.70 out of 12
Ozone Good
PM2.5 Good
Flu Activity Regional
METAR KPQI 171735Z AUTO 10005KT 10SM CLR 02/M13 A3080 RMK AO1

More Conditions Fewer Conditions

10-Day Forecast

Almanac

Astronomy

Apr. 17, 2014 Rise Set
Actual Time 5:41 AM EDT 7:23 PM EDT
Civil Twilight 5:09 AM EDT 7:55 PM EDT
Nautical Twilight 4:30 AM EDT 8:34 PM EDT
Astronomical Twilight 3:48 AM EDT 9:17 PM EDT
Moon 10:13 PM EDT 7:04 AM EDT
Length of Visible Light 14h 46m
Length of Day
13h 42m
Tomorrow will be 3m 10s longer.
Waning Gibbous, 93% of the Moon is Illuminated
Today
Waning Gibbous
Apr 22
Last Quarter
Apr 29
New
May 6
First Quarter
May 14
Full

Today's Extremes

State Highs State Lows

Community

  • New Day
    New Day
  • Lake Michigan Sunrise
    Lake Michigan Sunrise
  • sunset from izmir, narlıdere
    sunset from izmir, narlıdere
  • oregon cherry
    oregon cherry
  • Sunset over the Bay
    Sunset over the Bay

WunderPhotos

Upload Photos

1,702,075 photos uploaded!

Nearby

Air Quality

  Air Quality AQ Index Pollutant
Yesterday Good
OZONE
Yesterday Good
PM2.5
Current Good
OZONE
Current Good
PM2.5
Thursday Good
OZONE
Thursday Good
PM2.5
Friday Good
OZONE
Friday Good
PM2.5
Saturday Good
OZONE
Saturday Good
PM2.5

Snow Depth

Station Depth Elevation
No new snow has been reported.

Coastal Water Temperatures

Place Temperature
No Stations Reporting

Earthquake Activity

City Distance Mag. Time & Date
No recent earthquake activity has been reported nearby.
Minimum magnitude displayed is 2.5.

Nearby Weather Stations

Station Location Temp. Windchill Dew Point Humidity Wind Precip. Elev Updated Type
Micmac Environmental, Presque Isle, ME 38.6 °F 39 °F 11 °F 32% SE  at  0.0 mph 0.00 in / hr 528 ft 1:42 PM EDT Rapid Fire
Crown Weather Services, Caribou, ME 39.7 °F 40 °F 15 °F 36% SSE  at  1.0 mph 0.00 in / hr 564 ft 1:42 PM EDT Rapid Fire

Show More Stations Show Fewer Stations

What do you think?

We're not finished. Please let us know what you like, what you don't like, and what you are still missing.